createdAt,value
2018-11-29T00:02:21.002Z,3.6
2018-11-29T00:07:21.440Z,2.8
2018-11-29T00:12:21.603Z,2.8
2018-11-29T00:17:20.778Z,3.9
2018-11-29T00:22:20.994Z,3.9
2018-11-29T00:27:21.360Z,3.2
2018-11-29T00:32:21.552Z,3.2
2018-11-29T00:37:20.907Z,3.6
2018-11-29T00:42:21.018Z,3.6
2018-11-29T00:47:21.195Z,4
2018-11-29T00:52:21.424Z,4
2018-11-29T00:57:20.820Z,3.2
2018-11-29T01:02:20.975Z,3.2
2018-11-29T01:07:21.456Z,2.7
2018-11-29T01:12:21.605Z,2.7
2018-11-29T01:17:20.961Z,2.5
2018-11-29T01:22:21.055Z,2.5
2018-11-29T01:27:21.336Z,2.7
2018-11-29T01:32:21.502Z,2.7
2018-11-29T01:37:20.779Z,2.7
2018-11-29T01:42:20.850Z,2.7
2018-11-29T01:47:21.243Z,3.6
2018-11-29T01:52:21.417Z,3.6
2018-11-29T01:57:21.221Z,2.7
2018-11-29T02:02:21.639Z,2.7
2018-11-29T02:07:21.100Z,3.1
2018-11-29T02:12:21.206Z,3.1
2018-11-29T02:17:21.640Z,2.7
2018-11-29T02:22:20.880Z,2.7
2018-11-29T02:27:21.255Z,2.8
2018-11-29T02:32:21.347Z,2.8
2018-11-29T02:37:21.099Z,3.4
2018-11-29T02:42:21.213Z,3.4
2018-11-29T02:47:21.961Z,2.5
2018-11-29T02:52:21.505Z,2.5
2018-11-29T02:57:21.698Z,2.7
2018-11-29T03:02:20.980Z,2.7
2018-11-29T03:07:21.493Z,2.7
2018-11-29T03:12:21.637Z,2.7
2018-11-29T03:17:20.990Z,2.7
2018-11-29T03:22:21.496Z,2.7
2018-11-29T03:27:21.786Z,2.7
2018-11-29T03:32:21.096Z,2.7
2018-11-29T03:37:21.415Z,2.4
2018-11-29T03:42:21.586Z,2.4
2018-11-29T03:47:20.962Z,2.7
2018-11-29T03:52:21.253Z,2.7
2018-11-29T03:57:21.513Z,2.8
2018-11-29T04:02:21.793Z,2.8
2018-11-29T04:07:21.621Z,2.7
2018-11-29T04:12:21.753Z,2.7
2018-11-29T04:17:21.062Z,2.7
2018-11-29T04:22:21.251Z,2.7
2018-11-29T04:27:21.501Z,2.3
2018-11-29T04:32:21.740Z,2.3
2018-11-29T04:37:21.073Z,2.2
2018-11-29T04:42:21.219Z,2.2
2018-11-29T04:47:21.554Z,2.4
2018-11-29T04:52:21.973Z,2.4
2018-11-29T04:57:21.233Z,2.2
2018-11-29T05:02:21.697Z,2.2
2018-11-29T05:07:21.245Z,2.4
2018-11-29T05:12:21.643Z,2.4
2018-11-29T05:17:21.927Z,3.1
2018-11-29T05:22:21.147Z,3.1
2018-11-29T05:27:21.786Z,2.7
2018-11-29T05:32:21.606Z,2.7
2018-11-29T05:37:21.109Z,2.7
2018-11-29T05:42:21.451Z,2.7
2018-11-29T05:47:21.725Z,2.3
2018-11-29T05:52:21.176Z,2.3
2018-11-29T05:57:21.467Z,2.2
2018-11-29T06:02:21.602Z,2.2
2018-11-29T06:07:21.347Z,2.2
2018-11-29T06:12:21.587Z,2.2
2018-11-29T06:17:21.905Z,2.2
2018-11-29T06:22:21.047Z,2.2
2018-11-29T06:27:21.889Z,2.2
2018-11-29T06:32:21.084Z,2.2
2018-11-29T06:37:21.487Z,2.2
2018-11-29T06:42:21.810Z,2.2
2018-11-29T06:47:21.185Z,2.2
2018-11-29T06:52:21.734Z,2.2
2018-11-29T06:57:22.027Z,2.2
2018-11-29T07:02:21.577Z,2.2
2018-11-29T07:07:21.426Z,2.7
2018-11-29T07:12:21.737Z,2.7
2018-11-29T07:17:22.027Z,2.2
2018-11-29T07:22:21.623Z,2.2
2018-11-29T07:27:21.939Z,2.9
2018-11-29T07:32:21.881Z,2.9
2018-11-29T07:37:21.584Z,2.2
2018-11-29T07:42:21.882Z,2.2
2018-11-29T07:47:22.299Z,2.4
2018-11-29T07:52:21.527Z,2.4
2018-11-29T07:57:21.753Z,2.2
2018-11-29T08:02:22.217Z,2.2
2018-11-29T08:07:21.093Z,2.2
2018-11-29T08:12:21.264Z,2.2
2018-11-29T08:17:21.809Z,2.6
2018-11-29T08:22:22.063Z,2.6
2018-11-29T08:27:21.468Z,2.2
2018-11-29T08:32:21.870Z,2.2
2018-11-29T08:37:21.307Z,2.3
2018-11-29T08:42:21.470Z,2.3
2018-11-29T08:47:21.791Z,2.6
2018-11-29T08:52:21.973Z,2.6
2018-11-29T08:57:21.252Z,2.7
2018-11-29T09:02:21.371Z,2.7
2018-11-29T09:07:21.877Z,2.3
2018-11-29T09:12:22.223Z,2.3
2018-11-29T09:17:21.464Z,2.2
2018-11-29T09:22:21.683Z,2.2
2018-11-29T09:27:21.977Z,2.7
2018-11-29T09:32:21.334Z,2.7
2018-11-29T09:37:21.857Z,2.7
2018-11-29T09:42:21.973Z,2.7
2018-11-29T09:47:21.326Z,2.2
2018-11-29T09:52:21.584Z,2.2
2018-11-29T09:57:21.945Z,2.4
2018-11-29T10:02:22.448Z,2.4
2018-11-29T10:07:21.930Z,2.7
2018-11-29T10:12:21.320Z,2.7
2018-11-29T10:17:21.794Z,2.2
2018-11-29T10:22:22.183Z,2.2
2018-11-29T10:27:21.569Z,1.8
2018-11-29T10:32:21.966Z,1.8
2018-11-29T10:37:21.659Z,1.9
2018-11-29T10:42:21.922Z,1.9
2018-11-29T10:47:21.489Z,2.2
2018-11-29T10:52:21.899Z,2.2
2018-11-29T10:57:22.258Z,2.3
2018-11-29T11:02:21.598Z,2.3
2018-11-29T11:07:21.554Z,2.2
2018-11-29T11:12:21.907Z,2.2
2018-11-29T11:17:22.366Z,2.3
2018-11-29T11:22:21.677Z,2.3
2018-11-29T11:27:22.178Z,2.6
2018-11-29T11:32:21.506Z,2.6
2018-11-29T11:37:22.268Z,2
2018-11-29T11:42:21.614Z,2
2018-11-29T11:47:21.967Z,2.2
2018-11-29T11:52:22.414Z,2.2
2018-11-29T11:57:21.900Z,2.9
2018-11-29T12:02:27.394Z,2.9
2018-11-29T12:07:21.823Z,2.4
2018-11-29T12:12:21.655Z,2.4
2018-11-29T12:17:21.643Z,2.5
2018-11-29T12:22:21.986Z,2.5
2018-11-29T12:27:21.460Z,2.7
2018-11-29T12:32:21.812Z,2.7
2018-11-29T12:37:22.190Z,2.2
2018-11-29T12:42:22.546Z,2.2
2018-11-29T12:47:21.766Z,2.4
2018-11-29T12:52:22.186Z,2.4
2018-11-29T12:57:22.136Z,2.6
2018-11-29T13:02:22.402Z,2.6
2018-11-29T13:07:22.381Z,2.1
2018-11-29T13:12:22.218Z,2.1
2018-11-29T13:17:21.658Z,2.4
2018-11-29T13:22:22.007Z,2.4
2018-11-29T13:27:22.237Z,2.7
2018-11-29T13:32:21.674Z,2.7
2018-11-29T13:37:22.147Z,2.4
2018-11-29T13:42:22.543Z,2.4
2018-11-29T13:47:22.268Z,2.7
2018-11-29T13:52:21.599Z,2.7
2018-11-29T13:57:22.025Z,3.1
2018-11-29T14:02:22.431Z,3.1
2018-11-29T14:07:21.592Z,2.8
2018-11-29T14:12:22.419Z,2.8
2018-11-29T14:17:21.917Z,2.7
2018-11-29T14:22:22.330Z,2.7
2018-11-29T14:27:22.446Z,2.7
2018-11-29T14:32:21.830Z,2.7
2018-11-29T14:37:21.644Z,3.1
2018-11-29T14:42:22.080Z,3.1
2018-11-29T14:47:22.526Z,2.2
2018-11-29T14:52:21.824Z,2.2
2018-11-29T14:57:22.190Z,2.2
2018-11-29T15:02:21.983Z,2.2
2018-11-29T15:07:22.305Z,2.3
2018-11-29T15:12:22.044Z,2.3
2018-11-29T15:17:22.421Z,2.7
2018-11-29T15:22:21.849Z,2.7
2018-11-29T15:27:22.399Z,2.3
2018-11-29T15:32:21.802Z,2.3
2018-11-29T15:37:22.442Z,2.2
2018-11-29T15:42:21.745Z,2.2
2018-11-29T15:47:22.601Z,2.8
2018-11-29T15:52:21.948Z,2.8
2018-11-29T15:57:22.196Z,2.7
2018-11-29T16:02:22.585Z,2.7
2018-11-29T16:07:22.373Z,2.8
2018-11-29T16:12:21.792Z,2.8
2018-11-29T16:17:22.242Z,2.7
2018-11-29T16:22:22.683Z,2.7
2018-11-29T16:27:22.045Z,2.7
2018-11-29T16:32:22.459Z,2.7
2018-11-29T16:37:21.832Z,2.8
2018-11-29T16:42:21.987Z,2.8
2018-11-29T16:47:22.466Z,2.7
2018-11-29T16:52:23.087Z,2.7
2018-11-29T16:57:22.341Z,2.7
2018-11-29T17:02:22.784Z,2.7
2018-11-29T17:07:22.723Z,2.9
2018-11-29T17:12:22.736Z,2.9
2018-11-29T17:17:22.076Z,3.1
2018-11-29T17:22:22.518Z,3.1
2018-11-29T17:27:21.769Z,3.1
2018-11-29T17:32:22.060Z,3.1
2018-11-29T17:37:22.636Z,2.7
2018-11-29T17:42:21.888Z,2.7
2018-11-29T17:47:22.472Z,3.1
2018-11-29T17:52:22.665Z,3.1
2018-11-29T17:57:22.005Z,2.7
2018-11-29T18:02:22.411Z,2.7
2018-11-29T18:07:21.956Z,3.1
2018-11-29T18:12:22.545Z,3.1
2018-11-29T18:17:22.772Z,2.2
2018-11-29T18:22:22.085Z,2.2
2018-11-29T18:27:22.431Z,3.1
2018-11-29T18:32:22.656Z,3.1
2018-11-29T18:37:22.383Z,2.7
2018-11-29T18:42:22.596Z,2.7
2018-11-29T18:47:21.999Z,2.8
2018-11-29T18:52:22.266Z,2.8
2018-11-29T18:57:22.501Z,2.6
2018-11-29T19:02:22.867Z,2.6
2018-11-29T19:07:22.704Z,3.1
2018-11-29T19:12:22.784Z,3.1
2018-11-29T19:17:25.060Z,3.1
2018-11-29T19:22:22.534Z,3.1
2018-11-29T19:27:22.802Z,2.1
2018-11-29T19:32:22.146Z,2.1
2018-11-29T19:37:22.876Z,1.8
2018-11-29T19:42:22.236Z,1.8
2018-11-29T19:47:22.550Z,2.2
2018-11-29T19:52:22.681Z,2.2
2018-11-29T19:57:22.019Z,2.7
2018-11-29T20:02:22.469Z,2.7
2018-11-29T20:07:22.375Z,2.1
2018-11-29T20:12:22.690Z,2.1
2018-11-29T20:17:22.027Z,2.2
2018-11-29T20:22:22.254Z,2.2
2018-11-29T20:27:22.425Z,1.8
2018-11-29T20:32:22.221Z,1.8
2018-11-29T20:37:22.615Z,2.1
2018-11-29T20:42:22.901Z,2.1
2018-11-29T20:47:22.317Z,1.9
2018-11-29T20:52:22.715Z,1.9
2018-11-29T20:57:22.179Z,1.8
2018-11-29T21:02:22.635Z,1.8
2018-11-29T21:07:22.616Z,1.8
2018-11-29T21:12:22.671Z,1.8
2018-11-29T21:17:22.975Z,1.8
2018-11-29T21:22:22.177Z,1.8
2018-11-29T21:27:22.440Z,1.8
2018-11-29T21:32:22.612Z,1.8
2018-11-29T21:37:22.972Z,1.7
2018-11-29T21:42:22.671Z,1.7
2018-11-29T21:47:22.914Z,1.8
2018-11-29T21:52:22.169Z,1.8
2018-11-29T21:57:22.766Z,2.2
2018-11-29T22:02:23.180Z,2.2
2018-11-29T22:07:22.827Z,2.7
2018-11-29T22:12:22.967Z,2.7
2018-11-29T22:17:22.372Z,2.7
2018-11-29T22:22:22.779Z,2.7
2018-11-29T22:27:22.142Z,1.9
2018-11-29T22:32:22.419Z,1.9
2018-11-29T22:37:22.824Z,2.2
2018-11-29T22:42:23.054Z,2.2
2018-11-29T22:47:22.458Z,2.7
2018-11-29T22:52:22.843Z,2.7
2018-11-29T22:57:23.274Z,2.2
2018-11-29T23:02:23.038Z,2.2
2018-11-29T23:07:23.042Z,1.9
2018-11-29T23:12:22.644Z,1.9
2018-11-29T23:17:22.920Z,2.2
2018-11-29T23:22:23.133Z,2.2
2018-11-29T23:27:23.157Z,2.1
2018-11-29T23:32:22.510Z,2.1
2018-11-29T23:37:22.260Z,1.8
2018-11-29T23:42:22.534Z,1.8
2018-11-29T23:47:22.850Z,2.2
2018-11-29T23:52:22.932Z,2.2
2018-11-29T23:57:22.212Z,2.7
